createdAt,value
2022-08-08T00:00:50.359Z,99016.28
2022-08-08T00:03:31.520Z,99009.75
2022-08-08T00:06:03.781Z,99010.50
2022-08-08T00:08:49.856Z,99010.25
2022-08-08T00:11:46.950Z,99015.28
2022-08-08T00:14:59.846Z,99017.37
2022-08-08T00:18:03.072Z,99003.78
2022-08-08T00:20:36.341Z,99001.16
2022-08-08T00:23:08.280Z,98990.75
2022-08-08T00:25:46.238Z,98990.03
2022-08-08T00:28:34.579Z,98987.75
2022-08-08T00:32:16.333Z,98980.06
2022-08-08T00:34:28.071Z,98970.81
2022-08-08T00:37:03.489Z,98971.25
2022-08-08T00:41:07.048Z,98977.66
2022-08-08T00:42:46.227Z,98978.94
2022-08-08T00:45:41.459Z,98982.59
2022-08-08T00:48:29.825Z,98981.50
2022-08-08T00:51:39.034Z,98978.94
2022-08-08T00:54:28.676Z,98983.09
2022-08-08T00:57:23.414Z,98980.59
2022-08-08T01:00:22.163Z,98970.03
2022-08-08T01:03:58.227Z,98969.84
2022-08-08T01:06:47.596Z,98975.00
2022-08-08T01:09:41.274Z,98971.63
2022-08-08T01:12:56.377Z,98973.91
2022-08-08T01:15:54.444Z,98969.66
2022-08-08T01:18:52.427Z,98973.34
2022-08-08T01:22:10.090Z,98982.94
2022-08-08T01:24:50.928Z,98974.38
2022-08-08T01:27:44.023Z,98976.09
2022-08-08T01:30:35.745Z,98969.56
2022-08-08T01:33:23.445Z,98958.13
2022-08-08T01:36:22.968Z,98963.38
2022-08-08T01:39:01.264Z,98956.44
2022-08-08T01:41:34.299Z,98957.97
2022-08-08T01:44:16.788Z,98950.16
2022-08-08T01:46:53.015Z,98941.00
2022-08-08T01:49:37.921Z,98949.87
2022-08-08T01:54:04.109Z,98945.53
2022-08-08T01:55:26.699Z,98947.94
2022-08-08T01:58:32.000Z,98952.19
2022-08-08T02:01:54.814Z,98951.75
2022-08-08T02:04:58.724Z,98949.66
2022-08-08T02:07:41.413Z,98950.88
2022-08-08T02:10:13.859Z,98961.62
2022-08-08T02:13:07.056Z,98963.75
2022-08-08T02:16:01.235Z,98959.81
2022-08-08T02:18:39.497Z,98967.50
2022-08-08T02:21:48.273Z,98969.06
2022-08-08T02:24:22.748Z,98963.09
2022-08-08T02:27:07.027Z,98968.22
2022-08-08T02:29:54.162Z,98975.38
2022-08-08T02:32:32.295Z,98980.69
2022-08-08T02:35:08.488Z,98987.84
2022-08-08T02:38:05.731Z,98985.53
2022-08-08T02:40:39.666Z,98982.16
2022-08-08T02:44:38.225Z,98984.88
2022-08-08T02:47:01.476Z,98978.38
2022-08-08T02:50:02.716Z,98975.09
2022-08-08T02:52:41.540Z,98982.34
2022-08-08T02:55:19.797Z,98979.31
2022-08-08T02:58:40.838Z,98978.94
2022-08-08T03:01:19.154Z,98982.88
2022-08-08T03:05:03.242Z,98989.00
2022-08-08T03:07:02.214Z,98989.81
2022-08-08T03:10:31.451Z,98979.00
2022-08-08T03:13:33.953Z,98986.03
2022-08-08T03:16:35.425Z,98996.28
2022-08-08T03:19:20.052Z,98991.81
2022-08-08T03:21:58.645Z,99000.34
2022-08-08T03:24:28.915Z,98989.25
2022-08-08T03:27:09.736Z,98996.22
2022-08-08T03:29:54.601Z,98993.44
2022-08-08T03:32:41.440Z,99001.69
2022-08-08T03:35:10.361Z,98996.00
2022-08-08T03:38:53.402Z,98990.31
2022-08-08T03:40:30.049Z,99000.38
2022-08-08T03:43:16.760Z,99000.19
2022-08-08T03:46:05.286Z,99001.00
2022-08-08T03:49:09.561Z,99000.19
2022-08-08T03:51:26.574Z,98997.09
2022-08-08T03:54:09.893Z,98996.00
2022-08-08T03:56:43.566Z,99001.94
2022-08-08T03:59:22.580Z,98996.44
2022-08-08T04:02:12.885Z,98989.13
2022-08-08T04:04:39.966Z,99002.91
2022-08-08T04:07:09.175Z,99009.69
2022-08-08T04:09:59.149Z,99005.66
2022-08-08T04:12:25.487Z,99003.37
2022-08-08T04:14:54.206Z,99013.34
2022-08-08T04:17:58.541Z,99017.41
2022-08-08T04:20:10.949Z,99015.06
2022-08-08T04:22:38.525Z,99027.06
2022-08-08T04:25:08.008Z,99029.97
2022-08-08T04:28:02.977Z,99030.47
2022-08-08T04:30:24.493Z,99027.31
2022-08-08T04:32:52.375Z,99025.87
2022-08-08T04:35:22.779Z,99038.34
2022-08-08T04:37:52.092Z,99032.97
2022-08-08T04:40:24.258Z,99035.03
2022-08-08T04:42:57.244Z,99029.34
2022-08-08T04:45:26.261Z,99032.25
2022-08-08T04:47:54.836Z,99035.72
2022-08-08T04:50:24.197Z,99032.25
2022-08-08T04:52:58.530Z,99035.16
2022-08-08T04:55:26.299Z,99037.47
2022-08-08T04:58:09.498Z,99030.56
2022-08-08T05:00:39.063Z,99037.16
2022-08-08T05:03:06.414Z,99038.81
2022-08-08T05:05:45.455Z,99041.72
2022-08-08T05:08:13.949Z,99050.16
2022-08-08T05:10:41.114Z,99053.25
2022-08-08T05:13:17.424Z,99045.84
2022-08-08T05:16:51.431Z,99040.09
2022-08-08T05:18:33.645Z,99042.50
2022-08-08T05:21:05.799Z,99046.06
2022-08-08T05:23:41.149Z,99040.59
2022-08-08T05:26:14.299Z,99046.06
2022-08-08T05:28:56.243Z,99050.84
2022-08-08T05:32:04.165Z,99053.78
2022-08-08T05:34:26.507Z,99059.03
2022-08-08T05:36:56.514Z,99061.56
2022-08-08T05:39:25.315Z,99059.44
2022-08-08T05:41:58.917Z,99060.25
2022-08-08T05:44:31.111Z,99056.69
2022-08-08T05:47:02.912Z,99047.34
2022-08-08T05:49:31.119Z,99051.09
2022-08-08T05:51:58.816Z,99058.13
2022-08-08T05:54:43.304Z,99062.31
2022-08-08T05:57:16.284Z,99052.56
2022-08-08T06:00:23.507Z,99044.97
2022-08-08T06:03:24.617Z,99038.25
2022-08-08T06:05:59.572Z,99034.75
2022-08-08T06:08:34.458Z,99040.50
2022-08-08T06:11:04.215Z,99051.19
2022-08-08T06:13:35.746Z,99065.75
2022-08-08T06:16:04.292Z,99062.41
2022-08-08T06:18:36.503Z,99063.25
2022-08-08T06:21:27.890Z,99061.03
2022-08-08T06:24:02.550Z,99059.00
2022-08-08T06:26:44.428Z,99060.03
2022-08-08T06:29:48.509Z,99060.81
2022-08-08T06:32:10.677Z,99057.13
2022-08-08T06:34:56.344Z,99058.34
2022-08-08T06:37:39.650Z,99065.13
2022-08-08T06:40:16.105Z,99072.34
2022-08-08T06:42:52.090Z,99075.62
2022-08-08T06:45:23.711Z,99078.09
2022-08-08T06:47:52.176Z,99075.22
2022-08-08T06:50:32.019Z,99073.56
2022-08-08T06:53:13.840Z,99075.19
2022-08-08T06:55:47.061Z,99082.19
2022-08-08T06:58:15.240Z,99078.72
2022-08-08T07:00:49.457Z,99072.56
2022-08-08T07:03:52.020Z,99072.53
2022-08-08T07:06:27.016Z,99072.28
2022-08-08T07:08:59.514Z,99059.84
2022-08-08T07:11:51.228Z,99063.63
2022-08-08T07:14:22.012Z,99063.66
2022-08-08T07:17:14.421Z,99060.69
2022-08-08T07:19:59.853Z,99064.47
2022-08-08T07:23:02.337Z,99077.00
2022-08-08T07:25:34.833Z,99074.22
2022-08-08T07:28:13.640Z,99082.03
2022-08-08T07:30:47.180Z,99075.75
2022-08-08T07:33:17.738Z,99087.44
2022-08-08T07:35:47.333Z,99085.97
2022-08-08T07:38:21.130Z,99084.69
2022-08-08T07:40:59.013Z,99086.56
2022-08-08T07:43:37.390Z,99095.25
2022-08-08T07:46:23.961Z,99089.22
2022-08-08T07:48:54.562Z,99086.22
2022-08-08T07:51:44.661Z,99094.19
2022-08-08T07:54:10.629Z,99097.72
2022-08-08T07:57:09.058Z,99100.25
2022-08-08T07:59:52.739Z,99099.47
2022-08-08T08:02:36.387Z,99102.37
2022-08-08T08:05:20.522Z,99104.25
2022-08-08T08:07:54.677Z,99102.63
2022-08-08T08:10:30.382Z,99101.09
2022-08-08T08:13:25.296Z,99103.34
2022-08-08T08:16:03.312Z,99105.66
2022-08-08T08:18:39.071Z,99102.69
2022-08-08T08:21:20.234Z,99110.19
2022-08-08T08:24:07.977Z,99102.72
2022-08-08T08:26:38.373Z,99104.94
2022-08-08T08:29:06.257Z,99108.94
2022-08-08T08:31:41.762Z,99109.13
2022-08-08T08:34:09.914Z,99114.03
2022-08-08T08:36:38.269Z,99112.47
2022-08-08T08:39:07.589Z,99120.59
2022-08-08T08:41:45.924Z,99122.19
2022-08-08T08:44:16.429Z,99128.28
2022-08-08T08:46:58.674Z,99131.56
2022-08-08T08:49:30.680Z,99130.28
2022-08-08T08:52:03.821Z,99131.38
2022-08-08T08:54:35.118Z,99126.84
2022-08-08T08:57:03.590Z,99131.06
2022-08-08T09:00:01.439Z,99132.19
2022-08-08T09:02:34.658Z,99129.59
2022-08-08T09:05:04.334Z,99138.31
2022-08-08T09:07:39.203Z,99132.97
2022-08-08T09:10:22.679Z,99135.91
2022-08-08T09:12:56.116Z,99143.03
2022-08-08T09:15:40.746Z,99140.19
2022-08-08T09:18:11.135Z,99146.13
2022-08-08T09:22:00.137Z,99149.56
2022-08-08T09:23:33.305Z,99141.66
2022-08-08T09:26:21.740Z,99141.81
2022-08-08T09:28:50.051Z,99136.50
2022-08-08T09:32:03.758Z,99141.69
2022-08-08T09:34:34.541Z,99135.06
2022-08-08T09:37:39.536Z,99137.75
2022-08-08T09:40:10.727Z,99135.06
2022-08-08T09:42:51.667Z,99130.22
2022-08-08T09:46:01.736Z,99128.69
2022-08-08T09:48:21.353Z,99120.09
2022-08-08T09:50:55.796Z,99116.41
2022-08-08T09:53:53.258Z,99110.44
2022-08-08T09:56:21.740Z,99108.56
2022-08-08T09:59:31.900Z,99106.22
2022-08-08T10:02:02.130Z,99111.91
2022-08-08T10:04:42.457Z,99106.56
2022-08-08T10:07:16.498Z,99108.81
2022-08-08T10:09:59.984Z,99108.47
2022-08-08T10:12:36.082Z,99119.25
2022-08-08T10:15:21.283Z,99119.66
2022-08-08T10:18:07.442Z,99133.66
2022-08-08T10:20:57.438Z,99140.66
2022-08-08T10:23:57.928Z,99131.59
2022-08-08T10:26:59.660Z,99122.41
2022-08-08T10:29:56.595Z,99120.97
2022-08-08T10:32:38.244Z,99115.22
2022-08-08T10:35:24.444Z,99111.41
2022-08-08T10:38:05.809Z,99111.50
2022-08-08T10:40:37.629Z,99104.91
2022-08-08T10:43:06.348Z,99106.12
2022-08-08T10:45:55.663Z,99120.94
2022-08-08T10:48:57.738Z,99130.13
2022-08-08T10:51:31.679Z,99136.12
2022-08-08T10:54:24.788Z,99133.00
2022-08-08T10:56:59.710Z,99136.25
2022-08-08T10:59:30.887Z,99121.50
2022-08-08T11:01:59.281Z,99133.63
2022-08-08T11:04:38.733Z,99130.94
2022-08-08T11:07:07.293Z,99128.22
2022-08-08T11:09:34.921Z,99126.72
2022-08-08T11:12:12.323Z,99122.03
2022-08-08T11:14:57.109Z,99119.91
2022-08-08T11:17:59.534Z,99114.84
2022-08-08T11:20:18.279Z,99112.47
2022-08-08T11:22:51.925Z,99112.41
2022-08-08T11:25:43.700Z,99110.00
2022-08-08T11:28:13.361Z,99113.34
2022-08-08T11:30:50.603Z,99110.22
2022-08-08T11:33:35.325Z,99105.12
2022-08-08T11:36:14.217Z,99109.75
2022-08-08T11:38:54.188Z,99114.19
2022-08-08T11:41:24.588Z,99113.56
2022-08-08T11:43:58.154Z,99130.75
2022-08-08T11:46:28.114Z,99136.50
2022-08-08T11:48:58.079Z,99140.03
2022-08-08T11:51:29.910Z,99127.13
2022-08-08T11:54:04.097Z,99130.81
2022-08-08T11:56:34.404Z,99131.41
2022-08-08T11:59:09.500Z,99128.06
2022-08-08T12:01:37.854Z,99125.56
2022-08-08T12:04:07.776Z,99131.44
2022-08-08T12:06:34.900Z,99122.19
2022-08-08T12:09:07.435Z,99123.41
2022-08-08T12:11:41.282Z,99124.50
2022-08-08T12:14:11.015Z,99129.78
2022-08-08T12:16:49.556Z,99114.47
2022-08-08T12:19:20.625Z,99110.41
2022-08-08T12:22:09.453Z,99125.44
2022-08-08T12:24:51.473Z,99119.91
2022-08-08T12:27:21.488Z,99117.09
2022-08-08T12:29:59.935Z,99124.19
2022-08-08T12:32:31.378Z,99136.34
2022-08-08T12:35:13.060Z,99137.44
2022-08-08T12:38:00.946Z,99133.19
2022-08-08T12:40:56.957Z,99137.78
2022-08-08T12:43:46.159Z,99130.81
2022-08-08T12:46:25.157Z,99139.00
2022-08-08T12:51:58.457Z,99168.56
2022-08-08T12:54:36.533Z,99147.84
2022-08-08T12:57:17.029Z,99145.72
2022-08-08T13:00:05.748Z,99135.56
2022-08-08T13:02:42.017Z,99132.03
2022-08-08T13:05:27.056Z,99139.87
2022-08-08T13:08:17.805Z,99142.72
2022-08-08T13:10:56.396Z,99143.06
2022-08-08T13:13:37.301Z,99146.69
2022-08-08T13:16:21.469Z,99139.19
2022-08-08T13:18:56.940Z,99138.16
2022-08-08T13:21:26.973Z,99145.00
2022-08-08T13:24:20.864Z,99138.88
2022-08-08T13:27:10.800Z,99139.78
2022-08-08T13:29:54.359Z,99137.94
2022-08-08T13:32:25.462Z,99126.88
2022-08-08T13:34:55.433Z,99128.12
2022-08-08T13:37:51.870Z,99130.78
2022-08-08T13:40:10.921Z,99127.47
2022-08-08T13:42:38.510Z,99131.69
2022-08-08T13:45:06.543Z,99126.34
2022-08-08T13:47:37.098Z,99125.69
2022-08-08T13:50:36.902Z,99118.69
2022-08-08T13:52:56.615Z,99119.63
2022-08-08T13:55:29.696Z,99107.44
2022-08-08T13:58:08.302Z,99118.13
2022-08-08T14:00:40.488Z,99120.66
2022-08-08T14:03:47.337Z,99112.53
2022-08-08T14:06:20.453Z,99116.19
2022-08-08T14:08:58.230Z,99118.84
2022-08-08T14:11:29.433Z,99109.97
2022-08-08T14:13:59.440Z,99100.38
2022-08-08T14:16:28.865Z,99108.81
2022-08-08T14:18:57.940Z,99109.31
2022-08-08T14:21:48.799Z,99121.53
2022-08-08T14:24:33.969Z,99121.88
2022-08-08T14:27:01.971Z,99126.88
2022-08-08T14:29:39.621Z,99113.56
2022-08-08T14:32:11.737Z,99115.19
2022-08-08T14:34:41.918Z,99115.91
2022-08-08T14:37:13.048Z,99116.84
2022-08-08T14:39:54.195Z,99107.16
2022-08-08T14:42:35.284Z,99124.41
2022-08-08T14:45:09.977Z,99110.44
2022-08-08T14:47:51.222Z,99110.03
2022-08-08T14:50:38.110Z,99116.44
2022-08-08T14:53:13.650Z,99103.13
2022-08-08T14:55:42.916Z,99115.06
2022-08-08T14:58:16.693Z,99115.88
2022-08-08T15:00:48.714Z,99120.38
2022-08-08T15:03:16.966Z,99117.09
2022-08-08T15:05:53.232Z,99118.72
2022-08-08T15:08:34.295Z,99117.09
2022-08-08T15:11:11.465Z,99123.28
2022-08-08T15:14:00.959Z,99122.63
2022-08-08T15:16:28.186Z,99118.94
2022-08-08T15:18:55.643Z,99110.06
2022-08-08T15:21:22.724Z,99113.97
2022-08-08T15:23:54.958Z,99118.25
2022-08-08T15:26:25.536Z,99114.81
2022-08-08T15:28:54.336Z,99113.75
2022-08-08T15:31:55.933Z,99118.72
2022-08-08T15:34:29.067Z,99125.59
2022-08-08T15:37:03.131Z,99127.72
2022-08-08T15:39:37.949Z,99123.63
2022-08-08T15:42:17.786Z,99121.56
2022-08-08T15:44:57.582Z,99126.91
2022-08-08T15:47:24.898Z,99115.44
2022-08-08T15:49:53.147Z,99122.22
2022-08-08T15:52:22.079Z,99111.91
2022-08-08T15:54:51.681Z,99110.28
2022-08-08T15:57:20.013Z,99110.28
2022-08-08T16:00:25.372Z,99111.78
2022-08-08T16:02:44.651Z,99109.06
2022-08-08T16:05:23.527Z,99110.28
2022-08-08T16:07:53.908Z,99107.19
2022-08-08T16:13:09.021Z,99103.06
2022-08-08T16:13:32.090Z,99101.81
2022-08-08T16:16:13.306Z,99101.41
2022-08-08T16:18:56.828Z,99100.53
2022-08-08T16:21:31.642Z,99097.69
2022-08-08T16:24:02.193Z,99095.28
2022-08-08T16:26:34.816Z,99098.34
2022-08-08T16:29:08.006Z,99099.56
2022-08-08T16:31:48.466Z,99101.66
2022-08-08T16:34:21.354Z,99101.19
2022-08-08T16:36:52.752Z,99107.63
2022-08-08T16:39:59.718Z,99115.91
2022-08-08T16:42:13.892Z,99107.00
2022-08-08T16:44:47.331Z,99107.00
2022-08-08T16:47:40.488Z,99103.81
2022-08-08T16:50:14.117Z,99106.81
2022-08-08T16:55:07.214Z,99106.81
2022-08-08T16:55:56.003Z,99103.03
2022-08-08T16:58:26.703Z,99110.81
2022-08-08T17:00:57.901Z,99118.72
2022-08-08T17:03:59.287Z,99114.25
2022-08-08T17:06:35.756Z,99119.34
2022-08-08T17:09:00.585Z,99120.12
2022-08-08T17:11:38.932Z,99124.66
2022-08-08T17:14:17.960Z,99129.47
2022-08-08T17:16:57.204Z,99133.97
2022-08-08T17:19:29.836Z,99141.47
2022-08-08T17:22:01.209Z,99148.63
2022-08-08T17:24:30.523Z,99145.84
2022-08-08T17:26:59.409Z,99146.72
2022-08-08T17:29:27.575Z,99150.19
2022-08-08T17:31:57.820Z,99152.03
2022-08-08T17:34:37.063Z,99152.22
2022-08-08T17:37:13.781Z,99158.34
2022-08-08T17:40:04.028Z,99158.03
2022-08-08T17:42:28.457Z,99151.44
2022-08-08T17:44:58.215Z,99148.97
2022-08-08T17:47:28.076Z,99153.81
2022-08-08T17:50:01.409Z,99141.06
2022-08-08T17:52:35.456Z,99152.97
2022-08-08T17:56:03.743Z,99152.63
2022-08-08T17:57:53.518Z,99146.09
2022-08-08T18:00:21.620Z,99142.19
2022-08-08T18:03:08.792Z,99143.06
2022-08-08T18:05:44.053Z,99137.25
2022-08-08T18:08:24.824Z,99148.03
2022-08-08T18:11:11.559Z,99146.56
2022-08-08T18:13:42.709Z,99152.47
2022-08-08T18:16:11.112Z,99145.84
2022-08-08T18:18:45.270Z,99151.41
2022-08-08T18:21:34.636Z,99155.06
2022-08-08T18:24:17.231Z,99162.91
2022-08-08T18:26:54.587Z,99167.44
2022-08-08T18:29:32.938Z,99166.81
2022-08-08T18:32:10.344Z,99162.37
2022-08-08T18:34:42.723Z,99169.38
2022-08-08T18:37:10.498Z,99172.88
2022-08-08T18:39:57.622Z,99175.00
2022-08-08T18:42:25.842Z,99169.72
2022-08-08T18:44:57.289Z,99170.06
2022-08-08T18:47:26.404Z,99178.69
2022-08-08T18:49:58.764Z,99180.81
2022-08-08T18:52:29.983Z,99175.50
2022-08-08T18:55:00.115Z,99174.00
2022-08-08T18:57:41.972Z,99179.16
2022-08-08T19:00:16.591Z,99179.16
2022-08-08T19:02:56.215Z,99178.00
2022-08-08T19:05:32.265Z,99194.38
2022-08-08T19:08:24.773Z,99193.87
2022-08-08T19:11:01.841Z,99194.25
2022-08-08T19:13:52.418Z,99193.22
2022-08-08T19:16:20.204Z,99192.75
2022-08-08T19:19:00.463Z,99198.22
2022-08-08T19:21:33.499Z,99196.22
2022-08-08T19:24:33.973Z,99195.88
2022-08-08T19:27:03.019Z,99188.91
2022-08-08T19:29:31.237Z,99195.03
2022-08-08T19:32:01.334Z,99194.72
2022-08-08T19:34:36.215Z,99197.81
2022-08-08T19:37:16.495Z,99193.41
2022-08-08T19:39:45.567Z,99201.81
2022-08-08T19:42:13.602Z,99196.38
2022-08-08T19:44:45.410Z,99193.87
2022-08-08T19:47:14.935Z,99191.88
2022-08-08T19:49:59.567Z,99191.06
2022-08-08T19:52:35.277Z,99192.87
2022-08-08T19:55:11.446Z,99188.28
2022-08-08T19:57:44.267Z,99188.59
2022-08-08T20:00:30.042Z,99184.09
2022-08-08T20:03:15.252Z,99187.25
2022-08-08T20:06:13.472Z,99186.09
2022-08-08T20:08:36.691Z,99179.56
2022-08-08T20:11:03.916Z,99174.75
2022-08-08T20:14:11.774Z,99178.56
2022-08-08T20:16:19.040Z,99171.44
2022-08-08T20:18:52.833Z,99168.06
2022-08-08T20:21:25.694Z,99176.16
2022-08-08T20:23:57.992Z,99177.47
2022-08-08T20:26:29.971Z,99169.81
2022-08-08T20:28:59.268Z,99173.09
2022-08-08T20:31:47.258Z,99181.03
2022-08-08T20:34:29.544Z,99173.00
2022-08-08T20:36:59.447Z,99171.03
2022-08-08T20:39:27.367Z,99168.38
2022-08-08T20:42:06.899Z,99169.53
2022-08-08T20:44:37.486Z,99176.22
2022-08-08T20:47:15.884Z,99171.91
2022-08-08T20:49:50.952Z,99167.06
2022-08-08T20:52:24.010Z,99168.38
2022-08-08T20:54:51.954Z,99172.34
2022-08-08T20:57:28.966Z,99175.00
2022-08-08T20:59:57.346Z,99168.03
2022-08-08T21:02:26.796Z,99167.22
2022-08-08T21:05:00.257Z,99168.91
2022-08-08T21:07:47.902Z,99169.34
2022-08-08T21:10:20.692Z,99174.66
2022-08-08T21:12:53.044Z,99170.78
2022-08-08T21:16:04.009Z,99171.81
2022-08-08T21:18:10.029Z,99169.03
2022-08-08T21:20:39.880Z,99174.16
2022-08-08T21:23:13.240Z,99172.63
2022-08-08T21:25:48.959Z,99174.94
2022-08-08T21:28:19.358Z,99177.41
2022-08-08T21:31:05.863Z,99177.22
2022-08-08T21:33:52.774Z,99178.75
2022-08-08T21:36:21.888Z,99183.69
2022-08-08T21:38:57.549Z,99186.19
2022-08-08T21:41:38.481Z,99187.94
2022-08-08T21:44:11.416Z,99190.50
2022-08-08T21:48:07.509Z,99192.31
2022-08-08T21:49:28.604Z,99192.78
2022-08-08T21:54:32.315Z,99194.31
2022-08-08T21:55:02.259Z,99202.94
2022-08-08T21:57:43.104Z,99201.00
2022-08-08T22:00:25.877Z,99205.16
2022-08-08T22:02:53.716Z,99204.00
2022-08-08T22:05:21.321Z,99214.53
2022-08-08T22:07:49.824Z,99214.19
2022-08-08T22:13:17.422Z,99227.34
2022-08-08T22:15:58.931Z,99223.47
2022-08-08T22:18:29.654Z,99220.66
2022-08-08T22:21:14.632Z,99226.50
2022-08-08T22:23:51.517Z,99223.37
2022-08-08T22:26:29.621Z,99213.34
2022-08-08T22:29:13.633Z,99213.53
2022-08-08T22:31:58.223Z,99207.87
2022-08-08T22:34:30.618Z,99202.47
2022-08-08T22:36:57.980Z,99193.84
2022-08-08T22:39:28.352Z,99190.06
2022-08-08T22:42:14.050Z,99186.56
2022-08-08T22:44:51.131Z,99191.16
2022-08-08T22:47:18.602Z,99188.53
2022-08-08T22:49:54.115Z,99195.31
2022-08-08T22:52:33.619Z,99196.59
2022-08-08T22:55:04.654Z,99197.09
2022-08-08T22:57:44.109Z,99203.69
2022-08-08T23:00:17.216Z,99195.59
2022-08-08T23:02:50.361Z,99190.44
2022-08-08T23:05:18.378Z,99190.63
2022-08-08T23:07:56.975Z,99195.25
2022-08-08T23:10:25.584Z,99195.41
2022-08-08T23:12:54.707Z,99190.09
2022-08-08T23:16:40.598Z,99198.34
2022-08-08T23:18:11.543Z,99200.50
2022-08-08T23:20:43.183Z,99205.09
2022-08-08T23:23:14.286Z,99206.41
2022-08-08T23:25:47.830Z,99205.44
2022-08-08T23:28:18.200Z,99215.69
2022-08-08T23:30:47.364Z,99207.84
2022-08-08T23:33:19.427Z,99207.22
2022-08-08T23:36:07.809Z,99219.19
2022-08-08T23:38:44.186Z,99224.19
2022-08-08T23:41:23.026Z,99228.84
2022-08-08T23:43:56.357Z,99238.94
2022-08-08T23:49:03.888Z,99229.03
2022-08-08T23:49:14.894Z,99233.03
2022-08-08T23:52:04.794Z,99236.19
2022-08-08T23:54:41.430Z,99230.59
2022-08-08T23:57:15.332Z,99230.72
